Terminal Aerodrome Forecast
Issued by NWS

Home | Current Version | Previous Version | Graphics & Text | Print | Product List | Glossary On
Versions: 1 2 3 4 5 6 7 8 9 10 11 12 13 14
000
FTUS43 KGRB 241737
TAFAUW
TAF
KAUW 241737Z 2418/2518 06008KT P6SM OVC015
     FM242200 06005KT P6SM BKN016
     FM250600 02004KT 6SM BR SCT014
      TEMPO 2507/2511 4SM BR
     FM251300 03005KT P6SM SCT021
     FM251700 05004KT P6SM SCT035
      AMD NOT SKED=

USA.gov is the U.S. government's official web portal to all federal, state and local government web resources and services.